Latest Weather Observations for Lismore Airport

IDN60801

Issued at 10:42 am EDT Saturday 15 December 2018 (issued every 10 minutes, with the page automatically refreshed every 10 minutes)

About weather observations | Map of weather stations | Latest weather observations for NSW | Other Formats
Station Details ID: 058214 Name: LISMORE AIRPORT AWS Lat: -28.83 Lon: 153.26 Height: 9.21 m
Data from the previous 72 hours. | See also: Recent months at Lismore Airport
Date/Time
EDT
Temp
°C
App
Temp
°C
Dew
Point
°C
Rel
Hum
%
Delta-T
°C
Wind Press
QNH
hPa
Press
MSL
hPa
Rain since
9am
mm
Dir  Spd
km/h
Gust
km/h
Spd
kts
Gust
kts
15/10:30am 30.1 31.6 20.6 56 6.3 N 13 24 7 13 1008.7 1008.7 0.0
15/10:00am 28.6 30.0 20.3 60 5.5 N 13 20 7 11 1008.7 1008.7 0.0
15/09:30am 28.5 30.1 21.5 66 4.7 N 15 24 8 13 1008.7 1008.7 0.0
15/09:00am 27.1 27.6 20.9 69 4.1 N 19 30 10 16 1008.8 1008.8 1.6
15/08:30am 26.4 27.9 22.7 80 2.5 NNE 19 24 10 13 1008.8 1008.8 1.6
15/08:00am 25.5 27.6 22.4 83 2.1 NE 15 20 8 11 1008.3 1008.3 1.6
15/07:30am 24.2 29.1 23.0 93 0.8 N 2 9 1 5 1008.1 1008.1 1.6
15/07:00am 23.7 26.5 22.3 92 0.9 NNE 11 13 6 7 1007.7 1007.7 1.6
15/06:40am 23.9 25.3 22.5 92 0.9 NNE 19 26 10 14 1007.4 1007.4 1.6
15/06:30am 23.8 25.1 22.6 93 0.8 NNE 20 30 11 16 1007.5 1007.5 1.6
15/06:17am 23.8 25.5 22.4 92 0.9 NNE 17 28 9 15 1007.1 1007.1 0.8
15/06:15am 23.8 25.5 22.4 92 0.9 NNE 17 28 9 15 1007.1 1007.1 0.6
15/06:00am 23.8 25.1 22.4 92 0.9 NNE 19 24 10 13 1006.9 1006.9 0.2
15/05:52am 24.0 25.3 22.4 91 1.1 NNE 19 26 10 14 1006.8 1006.8 0.0
15/05:37am 24.0 25.3 22.3 90 1.1 NNE 19 28 10 15 1006.7 1006.7 0.0
15/05:30am 24.3 25.5 22.2 88 1.4 NE 19 28 10 15 1006.6 1006.6 0.0
15/05:00am 24.4 25.5 21.9 86 1.7 NNE 19 32 10 17 1006.0 1006.0 0.0
15/04:30am 24.3 25.7 21.8 86 1.7 NE 17 26 9 14 1006.0 1006.0 0.0
15/04:00am 24.4 27.2 21.5 84 1.9 ENE 9 15 5 8 1005.3 1005.3 0.0
15/03:30am 24.1 26.5 21.6 86 1.7 ENE 11 17 6 9 1005.4 1005.4 0.0
15/03:00am 23.8 26.6 21.5 87 1.5 N 9 13 5 7 1005.6 1005.6 0.0
15/02:30am 24.4 27.4 21.9 86 1.7 ENE 9 13 5 7 1005.3 1005.3 0.0
15/02:00am 24.5 27.3 21.6 84 1.9 NNE 9 13 5 7 1005.8 1005.8 0.0
15/01:30am 24.7 26.9 21.8 84 1.9 NNE 13 20 7 11 1005.9 1005.9 0.0
15/01:00am 24.8 26.2 21.9 84 1.9 NE 17 26 9 14 1006.3 1006.3 0.0
15/12:30am 24.8 26.1 21.7 83 2.1 NNE 17 24 9 13 1006.7 1006.7 0.0
15/12:00am 24.6 26.3 21.7 84 1.9 NNE 15 20 8 11 1006.5 1006.5 0.0
 
Date/Time
EDT
Temp
°C
App
Temp
°C
Dew
Point
°C
Rel
Hum
%
Delta-T
°C
Wind Press
QNH
hPa
Press
MSL
hPa
Rain since
9am
mm
Dir  Spd
km/h
Gust
km/h
Spd
kts
Gust
kts
14/11:30pm 24.5 25.7 21.4 83 2.0 NNE 17 20 9 11 1006.3 1006.3 0.0
14/11:00pm 24.5 25.3 21.4 83 2.1 NE 19 26 10 14 1006.1 1006.1 0.0
14/10:30pm 24.6 25.7 21.3 82 2.2 NE 17 20 9 11 1006.2 1006.2 0.0
14/10:00pm 24.6 26.5 21.3 82 2.2 ENE 13 20 7 11 1006.0 1006.0 0.0
14/09:30pm 24.8 26.7 21.3 81 2.3 NE 13 20 7 11 1005.4 1005.4 0.0
14/09:00pm 25.6 25.9 20.8 75 3.2 NNE 20 32 11 17 1005.1 1005.1 0.0
14/08:30pm 26.2 27.1 20.8 72 3.6 NNE 17 20 9 11 1005.7 1005.7 0.0
14/08:00pm 26.1 27.3 20.7 72 3.6 N 15 24 8 13 1005.7 1005.7 0.0
14/07:30pm 26.0 26.8 20.6 72 3.5 NNE 17 24 9 13 1005.0 1005.0 0.0
14/07:00pm 26.1 25.7 20.9 73 3.4 NNE 24 35 13 19 1003.9 1003.9 0.0
14/06:30pm 26.2 27.0 21.4 75 3.2 NE 19 35 10 19 1003.3 1003.3 0.0
14/06:00pm 26.6 26.2 21.6 74 3.3 NE 26 37 14 20 1002.9 1002.9 0.0
14/05:30pm 27.6 26.2 21.2 68 4.3 NE 30 41 16 22 1002.8 1002.8 0.0
14/05:00pm 28.7 27.6 21.0 63 5.1 NE 28 39 15 21 1002.1 1002.1 0.0
14/04:30pm 30.0 29.0 20.5 56 6.3 NE 26 39 14 21 1001.9 1001.9 0.0
14/04:00pm 31.0 29.3 20.6 54 6.9 NE 30 41 16 22 1002.2 1002.2 0.0
14/03:30pm 31.1 30.2 20.7 54 6.9 NNE 26 41 14 22 1002.5 1002.5 0.0
14/03:00pm 31.2 31.0 20.5 53 7.1 NE 22 32 12 17 1002.7 1002.7 0.0
14/02:30pm 30.6 31.9 21.7 59 6.0 NE 17 28 9 15 1003.2 1003.2 0.0
14/02:00pm 30.3 31.6 21.7 60 5.8 ENE 17 24 9 13 1003.3 1003.3 0.0
14/01:30pm 29.0 30.4 21.0 62 5.3 NE 15 22 8 12 1003.7 1003.7 0.0
14/01:00pm 28.9 29.9 21.7 65 4.8 NE 19 26 10 14 1003.9 1003.9 0.0
14/12:30pm 29.0 31.3 22.0 66 4.7 NE 13 20 7 11 1003.9 1003.9 0.0
14/12:00pm 28.0 30.0 21.5 67 4.4 NNE 13 19 7 10 1004.1 1004.1 0.0
14/11:30am 27.4 28.4 21.0 68 4.2 NE 17 20 9 11 1004.3 1004.3 0.0
14/11:00am 27.3 28.6 21.6 71 3.8 NE 17 24 9 13 1004.4 1004.4 0.0
14/10:30am 26.0 27.4 21.0 74 3.3 NE 15 19 8 10 1004.6 1004.6 0.0
14/10:00am 25.5 27.9 21.6 79 2.6 NNE 11 15 6 8 1004.9 1004.9 0.0
14/09:30am 24.7 26.9 21.2 81 2.3 NNE 11 15 6 8 1004.9 1004.9 0.0
14/09:00am 24.0 26.9 21.1 84 1.9 NW 7 11 4 6 1005.0 1005.0 1.2
14/08:30am 23.6 25.2 20.7 84 1.9 NE 13 17 7 9 1004.8 1004.8 1.2
14/08:00am 22.8 25.4 20.5 87 1.5 N 7 11 4 6 1004.7 1004.7 1.2
14/07:30am 22.2 25.2 20.8 92 0.9 NNW 6 13 3 7 1004.3 1004.3 1.2
14/07:00am 21.4 25.2 20.2 93 0.8 CALM 0 0 0 0 1004.5 1004.5 1.2
14/06:58am 21.4 25.2 20.2 93 0.8 CALM 0 0 0 0 1004.5 1004.5 1.2
14/06:38am 20.8 24.3 19.6 93 0.8 CALM 0 0 0 0 1004.3 1004.3 1.2
14/06:30am 20.6 24.0 19.4 93 0.8 CALM 0 0 0 0 1004.4 1004.4 1.2
14/06:00am 20.6 24.0 19.4 93 0.8 CALM 0 0 0 0 1003.7 1003.7 1.2
14/05:30am 20.8 24.3 19.5 92 0.8 CALM 0 0 0 0 1003.6 1003.6 1.2
14/05:00am 20.4 23.6 18.9 91 0.9 CALM 0 13 0 7 1003.5 1003.5 1.2
14/04:30am 21.2 24.8 19.7 91 1.0 CALM 0 0 0 0 1003.2 1003.2 1.2
14/04:00am 21.6 25.3 19.9 90 1.1 CALM 0 0 0 0 1003.1 1003.1 1.2
14/03:30am 21.6 22.4 19.9 90 1.1 WNW 15 20 8 11 1002.8 1002.8 1.2
14/03:00am 21.7 23.7 20.0 90 1.1 N 9 17 5 9 1002.8 1002.8 1.2
14/02:30am 22.1 23.1 20.2 89 1.2 NNE 15 17 8 9 1003.0 1003.0 1.0
14/02:00am 22.2 24.1 20.5 90 1.1 N 11 13 6 7 1003.7 1003.7 1.0
14/01:30am 21.8 24.3 20.3 91 1.0 N 7 9 4 5 1004.2 1004.2 0.8
14/01:00am 22.0 24.2 20.5 91 1.0 NNW 9 11 5 6 1004.7 1004.7 0.8
14/12:30am 22.4 26.6 20.9 91 1.0 CALM 0 0 0 0 1005.1 1005.1 0.8
14/12:00am 22.4 26.4 20.5 89 1.2 CALM 0 0 0 0 1005.7 1005.7 0.8
 
Date/Time
EDT
Temp
°C
App
Temp
°C
Dew
Point
°C
Rel
Hum
%
Delta-T
°C
Wind Press
QNH
hPa
Press
MSL
hPa
Rain since
9am
mm
Dir  Spd
km/h
Gust
km/h
Spd
kts
Gust
kts
13/11:30pm 22.9 26.9 20.6 87 1.5 CALM 0 0 0 0 1006.0 1006.0 0.8
13/11:00pm 23.6 27.0 19.3 77 2.8 CALM 0 0 0 0 1006.3 1006.3 0.0
13/10:30pm 24.3 27.7 19.4 74 3.1 CALM 0 0 0 0 1006.0 1006.0 0.0
13/10:00pm 24.0 27.3 19.1 74 3.1 CALM 0 0 0 0 1005.7 1005.7 0.0
13/09:30pm 24.5 25.7 19.1 72 3.4 NW 11 17 6 9 1005.1 1005.1 0.0
13/09:00pm 25.2 24.8 18.9 68 4.0 N 19 30 10 16 1004.5 1004.5 0.0
13/08:30pm 25.2 25.4 18.6 67 4.2 NNE 15 20 8 11 1004.1 1004.1 0.0
13/08:00pm 25.5 24.8 18.7 66 4.3 NNE 20 28 11 15 1003.7 1003.7 0.0
13/07:30pm 25.9 24.9 18.8 65 4.5 NNE 22 30 12 16 1003.0 1003.0 0.0
13/07:00pm 26.2 24.8 18.9 64 4.7 NNE 24 33 13 18 1002.6 1002.6 0.0
13/06:30pm 26.5 23.7 19.1 64 4.8 NNE 32 41 17 22 1002.1 1002.1 0.0
13/06:00pm 27.4 25.0 19.2 61 5.3 NNE 30 41 16 22 1001.6 1001.6 0.0
13/05:30pm 28.5 26.0 19.7 59 5.7 NE 32 44 17 24 1001.5 1001.5 0.0
13/05:00pm 29.4 26.3 18.8 53 6.9 NE 33 48 18 26 1000.8 1000.8 0.0
13/04:49pm 29.7 27.8 19.4 54 6.7 NE 28 46 15 25 1001.0 1001.0 0.0
13/04:30pm 30.2 27.5 19.3 52 7.1 NE 32 44 17 24 1001.1 1001.1 0.0
13/04:00pm 32.1 30.0 19.0 45 8.6 NE 28 39 15 21 1001.6 1001.6 0.0
13/03:30pm 32.9 31.7 17.5 39 9.9 N 20 30 11 16 1002.3 1002.3 0.0
13/03:00pm 32.1 29.8 15.6 37 10.3 NNW 22 32 12 17 1003.0 1003.0 0.0
13/02:30pm 32.4 30.7 16.3 38 10.1 N 20 30 11 16 1003.9 1003.9 0.0
13/02:00pm 32.9 33.6 19.7 45 8.7 NNE 15 24 8 13 1004.2 1004.2 0.0
13/01:30pm 31.5 30.1 17.0 41 9.2 N 20 28 11 15 1004.8 1004.8 0.0
13/01:00pm 30.8 30.9 19.2 50 7.6 NNE 17 24 9 13 1005.3 1005.3 0.0
13/12:30pm 29.7 29.2 17.8 48 7.6 N 17 28 9 15 1005.9 1005.9 0.0
13/12:00pm 29.1 29.8 19.7 57 6.2 N 15 24 8 13 1006.6 1006.6 0.0
13/11:30am 28.4 29.1 19.6 59 5.7 NW 15 19 8 10 1007.1 1007.1 0.0
13/11:00am 27.8 29.9 20.1 63 5.0 NE 9 15 5 8 1007.6 1007.6 0.0
13/10:30am 26.1 26.9 18.2 61 5.0 N 11 15 6 8 1008.1 1008.1 0.0
13/10:00am 24.9 26.8 18.6 68 4.0 NNE 6 11 3 6 1008.6 1008.6 0.0
13/09:30am 24.4 27.2 18.8 71 3.6 NW 2 9 1 5 1008.9 1008.9 0.0
13/09:00am 23.9 25.8 19.0 74 3.1 NNE 7 11 4 6 1009.1 1009.1 2.0
13/08:30am 21.7 24.0 19.8 89 1.2 NW 7 9 4 5 1009.6 1009.6 2.0
13/08:04am 20.8 22.6 19.5 92 0.8 NNW 9 11 5 6 1009.2 1009.2 2.0
13/08:00am 20.6 22.3 19.4 93 0.8 NNW 9 11 5 6 1009.2 1009.2 2.0
13/07:48am 20.6 22.9 19.8 95 0.5 N 7 11 4 6 1009.3 1009.3 2.0
13/07:30am 19.9 21.5 19.2 96 0.4 N 9 11 5 6 1009.4 1009.4 2.0
13/07:00am 19.1 20.4 18.4 96 0.4 N 9 11 5 6 1009.5 1009.5 2.0
13/06:30am 18.8 20.3 18.1 96 0.4 N 7 7 4 4 1009.2 1009.2 2.0
13/06:00am 18.5 19.6 17.9 96 0.4 NNW 9 11 5 6 1009.2 1009.2 1.8
13/05:30am 18.4 20.7 17.6 95 0.5 NNW 2 9 1 5 1008.9 1008.9 1.8
13/05:11am 18.7 19.8 17.9 95 0.5 NNW 9 11 5 6 1008.9 1008.9 1.8
13/05:00am 18.7 19.4 17.9 95 0.5 NNW 11 13 6 7 1008.9 1008.9 1.8
13/04:52am 18.7 20.1 17.9 95 0.5 NNW 7 11 4 6 1008.9 1008.9 1.8
13/04:30am 18.9 20.4 18.1 95 0.5 NNW 7 9 4 5 1008.9 1008.9 1.8
13/04:00am 19.3 21.9 18.5 95 0.5 NNW 2 11 1 6 1008.9 1008.9 1.8
13/03:30am 19.1 22.0 18.3 95 0.5 CALM 0 0 0 0 1009.1 1009.1 1.8
13/03:00am 18.9 21.7 17.9 94 0.6 CALM 0 0 0 0 1009.7 1009.7 1.8
13/02:30am 19.1 22.0 18.3 95 0.5 CALM 0 0 0 0 1010.0 1010.0 1.8
13/02:28am 19.1 22.0 18.3 95 0.5 CALM 0 0 0 0 1010.1 1010.1 1.8
13/02:00am 18.7 21.4 17.7 94 0.6 CALM 0 0 0 0 1010.4 1010.4 1.8
13/01:45am 19.3 22.2 18.3 94 0.6 CALM 0 0 0 0 1010.2 1010.2 1.8
13/01:30am 19.2 22.1 18.2 94 0.6 CALM 0 0 0 0 1010.4 1010.4 1.8
13/01:15am 19.0 21.7 17.8 93 0.7 CALM 0 0 0 0 1010.4 1010.4 1.8
13/01:00am 18.9 21.5 17.6 92 0.8 CALM 0 0 0 0 1010.6 1010.6 1.8
13/12:52am 19.2 22.0 17.9 92 0.8 CALM 0 0 0 0 1010.6 1010.6 1.8
13/12:30am 19.8 22.9 18.6 93 0.7 CALM 0 0 0 0 1010.6 1010.6 1.8
13/12:00am 19.7 22.7 18.4 92 0.8 CALM 0 0 0 0 1011.0 1011.0 1.8
 
Date/Time
EDT
Temp
°C
App
Temp
°C
Dew
Point
°C
Rel
Hum
%
Delta-T
°C
Wind Press
QNH
hPa
Press
MSL
hPa
Rain since
9am
mm
Dir  Spd
km/h
Gust
km/h
Spd
kts
Gust
kts
12/11:30pm 20.2 22.1 19.0 93 0.8 NNW 7 9 4 5 1011.3 1011.3 1.8
12/11:00pm 20.3 21.9 19.1 93 0.8 NNW 9 9 5 5 1011.2 1011.2 1.8
12/10:30pm 20.4 22.0 19.1 92 0.8 NNW 9 11 5 6 1011.8 1011.8 1.8
12/10:00pm 20.7 22.3 19.2 91 0.9 N 9 15 5 8 1012.3 1012.3 1.8
12/09:30pm 20.5 21.3 19.0 91 0.9 N 13 15 7 8 1012.0 1012.0 1.8
12/09:00pm 20.6 21.7 18.9 90 1.1 N 11 13 6 7 1012.3 1012.3 1.6
12/08:30pm 21.0 22.5 18.9 88 1.3 NNW 9 11 5 6 1012.6 1012.6 1.0
12/08:00pm 21.7 22.2 18.3 81 2.1 NE 13 17 7 9 1012.1 1012.1 1.0
12/07:30pm 22.1 23.0 18.3 79 2.4 NE 11 15 6 8 1012.2 1012.2 0.4
12/07:00pm 22.9 22.9 18.0 74 3.1 NE 15 24 8 13 1011.9 1011.9 0.0
12/06:30pm 24.0 22.2 17.0 65 4.3 NE 22 30 12 16 1010.8 1010.8 0.0
12/06:00pm 24.7 22.7 16.4 60 5.1 NE 22 32 12 17 1010.7 1010.7 0.0
12/05:30pm 25.4 23.4 16.5 58 5.5 NE 22 32 12 17 1010.2 1010.2 0.0
12/05:00pm 25.7 23.7 16.5 56 5.7 NE 22 30 12 16 1010.5 1010.5 0.0
12/04:30pm 27.4 25.4 16.4 51 6.8 ENE 22 32 12 17 1010.2 1010.2 0.0
12/04:00pm 27.3 25.1 16.9 53 6.5 NE 24 32 13 17 1010.6 1010.6 0.0
12/03:30pm 28.6 28.1 18.7 55 6.4 ENE 19 28 10 15 1010.9 1010.9 0.0
12/03:00pm 28.8 27.8 18.0 52 6.9 E 20 33 11 18 1011.2 1011.2 0.0
12/02:30pm 27.6 27.4 17.5 54 6.4 E 15 22 8 12 1011.8 1011.8 0.0
12/02:00pm 27.3 26.7 17.5 55 6.2 ESE 17 24 9 13 1012.1 1012.1 0.0
12/01:30pm 27.4 27.4 17.3 54 6.3 E 13 26 7 14 1012.4 1012.4 0.0
12/01:00pm 27.1 27.4 17.0 54 6.3 E 11 20 6 11 1012.8 1012.8 0.0
12/12:30pm 27.3 27.8 16.6 52 6.6 ESE 9 17 5 9 1013.3 1013.3 0.0
12/12:00pm 28.3 27.9 17.2 51 7.0 ENE 15 20 8 11 1013.6 1013.6 0.0
12/11:30am 26.9 27.4 16.5 53 6.4 NNE 9 17 5 9 1013.8 1013.8 0.0
12/11:00am 25.8 27.8 16.9 58 5.5 N 2 11 1 6 1014.3 1014.3 0.0

Other Formats:

Comma delimited format used in spreadsheet applications
http://www.bom.gov.au/fwo/IDN60801/IDN60801.94572.axf

JavaScript Object Notation format (JSON) in row-major order
http://www.bom.gov.au/fwo/IDN60801/IDN60801.94572.json